sensor_id;sensor_type;location;lat;lon;timestamp;pressure;altitude;pressure_sealevel;temperature;humidity
12676;BME280;63820;65.654;21.944;2022-10-31T00:00:19;101165.16;;;-3.58;100.00
12676;BME280;63820;65.654;21.944;2022-10-31T00:03:02;101162.47;;;-3.64;100.00
12676;BME280;63820;65.654;21.944;2022-10-31T00:05:48;101160.09;;;-3.58;100.00
12676;BME280;63820;65.654;21.944;2022-10-31T00:08:33;101165.91;;;-3.62;100.00
12676;BME280;63820;65.654;21.944;2022-10-31T00:11:17;101164.69;;;-3.76;100.00
12676;BME280;63820;65.654;21.944;2022-10-31T00:14:01;101159.78;;;-4.02;100.00
12676;BME280;63820;65.654;21.944;2022-10-31T00:16:46;101160.84;;;-3.93;100.00
12676;BME280;63820;65.654;21.944;2022-10-31T00:19:29;101174.47;;;-3.91;100.00
12676;BME280;63820;65.654;21.944;2022-10-31T00:22:14;101166.97;;;-3.87;100.00
12676;BME280;63820;65.654;21.944;2022-10-31T00:24:58;101166.88;;;-3.90;100.00
12676;BME280;63820;65.654;21.944;2022-10-31T00:27:42;101153.19;;;-3.95;100.00
12676;BME280;63820;65.654;21.944;2022-10-31T00:30:26;101169.19;;;-3.66;100.00
12676;BME280;63820;65.654;21.944;2022-10-31T00:33:10;101156.66;;;-3.60;100.00
12676;BME280;63820;65.654;21.944;2022-10-31T00:35:54;101158.22;;;-3.65;100.00
12676;BME280;63820;65.654;21.944;2022-10-31T00:38:39;101168.84;;;-3.80;100.00
12676;BME280;63820;65.654;21.944;2022-10-31T00:41:23;101176.25;;;-3.87;100.00
12676;BME280;63820;65.654;21.944;2022-10-31T00:44:07;101180.06;;;-4.03;100.00
12676;BME280;63820;65.654;21.944;2022-10-31T00:46:51;101174.88;;;-4.08;100.00
12676;BME280;63820;65.654;21.944;2022-10-31T00:49:35;101169.47;;;-3.88;100.00
12676;BME280;63820;65.654;21.944;2022-10-31T00:52:19;101165.53;;;-4.09;100.00
12676;BME280;63820;65.654;21.944;2022-10-31T00:55:03;101170.59;;;-4.09;100.00
12676;BME280;63820;65.654;21.944;2022-10-31T00:57:47;101164.91;;;-4.00;100.00
12676;BME280;63820;65.654;21.944;2022-10-31T01:00:31;101164.31;;;-4.23;100.00
12676;BME280;63820;65.654;21.944;2022-10-31T01:03:15;101165.00;;;-4.29;100.00
12676;BME280;63820;65.654;21.944;2022-10-31T01:08:48;101162.25;;;-4.05;100.00
12676;BME280;63820;65.654;21.944;2022-10-31T01:11:32;101161.09;;;-4.17;100.00
12676;BME280;63820;65.654;21.944;2022-10-31T01:14:16;101154.59;;;-4.06;100.00
12676;BME280;63820;65.654;21.944;2022-10-31T01:17:00;101154.41;;;-4.12;100.00
12676;BME280;63820;65.654;21.944;2022-10-31T01:19:45;101144.81;;;-3.91;100.00
12676;BME280;63820;65.654;21.944;2022-10-31T01:22:29;101139.94;;;-3.83;100.00
12676;BME280;63820;65.654;21.944;2022-10-31T01:25:13;101142.81;;;-3.71;100.00
12676;BME280;63820;65.654;21.944;2022-10-31T01:27:57;101126.66;;;-3.73;100.00
12676;BME280;63820;65.654;21.944;2022-10-31T01:30:41;101135.88;;;-3.77;100.00
12676;BME280;63820;65.654;21.944;2022-10-31T01:33:25;101130.38;;;-3.93;100.00
12676;BME280;63820;65.654;21.944;2022-10-31T01:36:38;101145.28;;;-4.06;100.00
12676;BME280;63820;65.654;21.944;2022-10-31T01:39:22;101137.41;;;-4.16;100.00
12676;BME280;63820;65.654;21.944;2022-10-31T01:42:06;101136.28;;;-4.26;100.00
12676;BME280;63820;65.654;21.944;2022-10-31T01:44:53;101131.03;;;-4.32;100.00
12676;BME280;63820;65.654;21.944;2022-10-31T01:47:45;101123.00;;;-4.16;100.00
12676;BME280;63820;65.654;21.944;2022-10-31T01:50:34;101124.34;;;-3.97;100.00
12676;BME280;63820;65.654;21.944;2022-10-31T01:53:20;101134.25;;;-4.06;100.00
12676;BME280;63820;65.654;21.944;2022-10-31T01:56:05;101132.00;;;-3.96;100.00
12676;BME280;63820;65.654;21.944;2022-10-31T01:58:49;101128.94;;;-4.15;100.00
12676;BME280;63820;65.654;21.944;2022-10-31T02:01:35;101134.50;;;-4.30;100.00
12676;BME280;63820;65.654;21.944;2022-10-31T02:04:21;101121.75;;;-4.32;100.00
12676;BME280;63820;65.654;21.944;2022-10-31T02:07:12;101125.53;;;-4.16;100.00
12676;BME280;63820;65.654;21.944;2022-10-31T02:09:58;101119.41;;;-4.24;100.00
12676;BME280;63820;65.654;21.944;2022-10-31T02:12:44;101126.22;;;-4.23;100.00
12676;BME280;63820;65.654;21.944;2022-10-31T02:15:29;101124.16;;;-4.36;100.00
12676;BME280;63820;65.654;21.944;2022-10-31T02:18:14;101124.97;;;-4.37;100.00
12676;BME280;63820;65.654;21.944;2022-10-31T02:21:32;101121.91;;;-4.25;100.00
12676;BME280;63820;65.654;21.944;2022-10-31T02:30:32;101111.75;;;-3.92;100.00
12676;BME280;63820;65.654;21.944;2022-10-31T02:33:26;101114.00;;;-3.70;100.00
12676;BME280;63820;65.654;21.944;2022-10-31T02:36:25;101111.78;;;-3.58;100.00
12676;BME280;63820;65.654;21.944;2022-10-31T02:45:14;101130.16;;;-3.68;100.00
12676;BME280;63820;65.654;21.944;2022-10-31T02:48:09;101126.81;;;-3.67;100.00
12676;BME280;63820;65.654;21.944;2022-10-31T02:50:59;101132.72;;;-3.68;100.00
12676;BME280;63820;65.654;21.944;2022-10-31T02:53:44;101129.34;;;-3.67;100.00
12676;BME280;63820;65.654;21.944;2022-10-31T02:56:28;101123.41;;;-3.68;100.00
12676;BME280;63820;65.654;21.944;2022-10-31T02:59:12;101118.69;;;-3.52;100.00
12676;BME280;63820;65.654;21.944;2022-10-31T03:02:09;101116.56;;;-3.36;100.00
12676;BME280;63820;65.654;21.944;2022-10-31T03:05:12;101111.47;;;-3.36;100.00
12676;BME280;63820;65.654;21.944;2022-10-31T03:08:06;101111.63;;;-3.28;100.00
12676;BME280;63820;65.654;21.944;2022-10-31T03:10:57;101107.41;;;-3.27;100.00
12676;BME280;63820;65.654;21.944;2022-10-31T03:13:52;101116.63;;;-3.33;100.00
12676;BME280;63820;65.654;21.944;2022-10-31T03:16:45;101126.09;;;-3.27;100.00
12676;BME280;63820;65.654;21.944;2022-10-31T03:19:36;101114.97;;;-3.31;100.00
12676;BME280;63820;65.654;21.944;2022-10-31T03:22:27;101114.81;;;-3.37;100.00
12676;BME280;63820;65.654;21.944;2022-10-31T03:25:13;101116.38;;;-3.43;100.00
12676;BME280;63820;65.654;21.944;2022-10-31T03:27:58;101106.75;;;-3.55;100.00
12676;BME280;63820;65.654;21.944;2022-10-31T03:30:45;101118.81;;;-3.48;100.00
12676;BME280;63820;65.654;21.944;2022-10-31T03:33:36;101116.41;;;-3.42;100.00
12676;BME280;63820;65.654;21.944;2022-10-31T03:36:22;101119.16;;;-3.33;100.00
12676;BME280;63820;65.654;21.944;2022-10-31T03:39:09;101119.19;;;-3.31;100.00
12676;BME280;63820;65.654;21.944;2022-10-31T03:42:00;101115.75;;;-3.33;100.00
12676;BME280;63820;65.654;21.944;2022-10-31T03:44:51;101117.03;;;-3.14;100.00
12676;BME280;63820;65.654;21.944;2022-10-31T03:47:37;101110.09;;;-3.21;100.00
12676;BME280;63820;65.654;21.944;2022-10-31T03:50:24;101120.41;;;-3.15;100.00
12676;BME280;63820;65.654;21.944;2022-10-31T03:53:32;101112.94;;;-3.06;100.00
12676;BME280;63820;65.654;21.944;2022-10-31T04:02:15;101106.03;;;-3.12;100.00
12676;BME280;63820;65.654;21.944;2022-10-31T04:05:01;101108.13;;;-2.94;100.00
12676;BME280;63820;65.654;21.944;2022-10-31T04:07:47;101119.28;;;-2.89;100.00
12676;BME280;63820;65.654;21.944;2022-10-31T04:10:36;101116.69;;;-2.90;100.00
12676;BME280;63820;65.654;21.944;2022-10-31T04:13:25;101113.97;;;-2.98;100.00
12676;BME280;63820;65.654;21.944;2022-10-31T04:16:12;101115.59;;;-3.02;100.00
12676;BME280;63820;65.654;21.944;2022-10-31T04:18:57;101108.16;;;-2.92;100.00
12676;BME280;63820;65.654;21.944;2022-10-31T04:21:41;101107.50;;;-2.84;100.00
12676;BME280;63820;65.654;21.944;2022-10-31T04:24:28;101114.25;;;-2.86;100.00
12676;BME280;63820;65.654;21.944;2022-10-31T04:27:12;101103.00;;;-2.96;100.00
12676;BME280;63820;65.654;21.944;2022-10-31T04:29:56;101103.69;;;-3.03;100.00
12676;BME280;63820;65.654;21.944;2022-10-31T04:32:40;101097.59;;;-3.12;100.00
12676;BME280;63820;65.654;21.944;2022-10-31T04:35:24;101095.03;;;-3.11;100.00
12676;BME280;63820;65.654;21.944;2022-10-31T04:38:08;101086.38;;;-3.20;100.00
12676;BME280;63820;65.654;21.944;2022-10-31T04:40:52;101089.53;;;-3.31;100.00
12676;BME280;63820;65.654;21.944;2022-10-31T04:43:36;101086.78;;;-3.40;100.00
12676;BME280;63820;65.654;21.944;2022-10-31T04:46:20;101082.88;;;-3.62;100.00
12676;BME280;63820;65.654;21.944;2022-10-31T04:49:04;101087.81;;;-3.68;100.00
12676;BME280;63820;65.654;21.944;2022-10-31T04:51:48;101082.16;;;-3.56;100.00
12676;BME280;63820;65.654;21.944;2022-10-31T04:54:32;101070.34;;;-3.54;100.00
12676;BME280;63820;65.654;21.944;2022-10-31T04:57:16;101072.53;;;-3.69;100.00
12676;BME280;63820;65.654;21.944;2022-10-31T05:00:00;101063.19;;;-3.70;100.00
12676;BME280;63820;65.654;21.944;2022-10-31T05:02:45;101063.94;;;-3.74;100.00
12676;BME280;63820;65.654;21.944;2022-10-31T05:05:30;101058.84;;;-3.74;100.00
12676;BME280;63820;65.654;21.944;2022-10-31T05:08:15;101051.84;;;-3.83;100.00
12676;BME280;63820;65.654;21.944;2022-10-31T05:11:00;101057.66;;;-3.88;100.00
12676;BME280;63820;65.654;21.944;2022-10-31T05:13:45;101056.28;;;-4.09;100.00
12676;BME280;63820;65.654;21.944;2022-10-31T05:16:29;101043.75;;;-4.03;100.00
12676;BME280;63820;65.654;21.944;2022-10-31T05:19:13;101054.41;;;-4.16;100.00
12676;BME280;63820;65.654;21.944;2022-10-31T05:21:57;101052.03;;;-4.10;100.00
12676;BME280;63820;65.654;21.944;2022-10-31T05:24:41;101045.16;;;-4.14;100.00
12676;BME280;63820;65.654;21.944;2022-10-31T05:27:26;101053.31;;;-4.27;100.00
12676;BME280;63820;65.654;21.944;2022-10-31T05:30:11;101049.22;;;-4.22;100.00
12676;BME280;63820;65.654;21.944;2022-10-31T05:32:56;101050.03;;;-4.23;100.00
12676;BME280;63820;65.654;21.944;2022-10-31T05:35:40;101042.06;;;-4.37;100.00
12676;BME280;63820;65.654;21.944;2022-10-31T05:38:24;101045.16;;;-4.47;100.00
12676;BME280;63820;65.654;21.944;2022-10-31T05:41:08;101042.66;;;-4.45;100.00
12676;BME280;63820;65.654;21.944;2022-10-31T05:43:53;101042.59;;;-4.48;100.00
12676;BME280;63820;65.654;21.944;2022-10-31T05:46:37;101039.72;;;-4.61;100.00
12676;BME280;63820;65.654;21.944;2022-10-31T05:49:21;101037.44;;;-4.51;100.00
12676;BME280;63820;65.654;21.944;2022-10-31T05:52:06;101039.59;;;-4.34;100.00
12676;BME280;63820;65.654;21.944;2022-10-31T05:54:50;101034.09;;;-4.16;100.00
12676;BME280;63820;65.654;21.944;2022-10-31T05:57:34;101028.50;;;-4.03;100.00
12676;BME280;63820;65.654;21.944;2022-10-31T06:00:18;101022.06;;;-3.88;100.00
12676;BME280;63820;65.654;21.944;2022-10-31T06:03:04;101028.66;;;-3.97;100.00
12676;BME280;63820;65.654;21.944;2022-10-31T06:05:49;101024.97;;;-4.08;100.00
12676;BME280;63820;65.654;21.944;2022-10-31T06:08:33;101031.78;;;-4.07;100.00
12676;BME280;63820;65.654;21.944;2022-10-31T06:11:17;101040.06;;;-4.14;100.00
12676;BME280;63820;65.654;21.944;2022-10-31T06:14:01;101037.66;;;-4.42;100.00
12676;BME280;63820;65.654;21.944;2022-10-31T06:16:45;101030.38;;;-4.62;100.00
12676;BME280;63820;65.654;21.944;2022-10-31T06:19:29;101033.41;;;-4.75;100.00
12676;BME280;63820;65.654;21.944;2022-10-31T06:22:13;101043.47;;;-4.78;100.00
12676;BME280;63820;65.654;21.944;2022-10-31T06:24:57;101042.31;;;-4.89;100.00
12676;BME280;63820;65.654;21.944;2022-10-31T06:27:41;101041.41;;;-4.91;100.00
12676;BME280;63820;65.654;21.944;2022-10-31T06:30:25;101048.63;;;-4.75;100.00
12676;BME280;63820;65.654;21.944;2022-10-31T06:33:09;101048.28;;;-4.87;100.00
12676;BME280;63820;65.654;21.944;2022-10-31T06:35:53;101045.44;;;-4.98;100.00
12676;BME280;63820;65.654;21.944;2022-10-31T06:38:37;101050.66;;;-4.93;100.00
12676;BME280;63820;65.654;21.944;2022-10-31T06:41:21;101056.63;;;-4.91;100.00
12676;BME280;63820;65.654;21.944;2022-10-31T06:44:06;101047.25;;;-4.94;100.00
12676;BME280;63820;65.654;21.944;2022-10-31T06:46:50;101053.28;;;-4.90;100.00
12676;BME280;63820;65.654;21.944;2022-10-31T06:49:34;101057.63;;;-4.86;100.00
12676;BME280;63820;65.654;21.944;2022-10-31T06:52:18;101054.44;;;-4.79;100.00
12676;BME280;63820;65.654;21.944;2022-10-31T06:55:02;101046.38;;;-4.64;100.00
12676;BME280;63820;65.654;21.944;2022-10-31T06:57:53;101053.69;;;-4.75;100.00
12676;BME280;63820;65.654;21.944;2022-10-31T07:00:37;101051.16;;;-4.75;100.00
12676;BME280;63820;65.654;21.944;2022-10-31T07:03:21;101046.69;;;-4.53;100.00
12676;BME280;63820;65.654;21.944;2022-10-31T07:06:06;101047.69;;;-4.47;100.00
12676;BME280;63820;65.654;21.944;2022-10-31T07:08:49;101055.25;;;-4.50;100.00
12676;BME280;63820;65.654;21.944;2022-10-31T07:11:33;101038.84;;;-4.61;100.00
12676;BME280;63820;65.654;21.944;2022-10-31T07:14:17;101047.00;;;-4.41;100.00
12676;BME280;63820;65.654;21.944;2022-10-31T07:17:01;101053.63;;;-4.46;100.00
12676;BME280;63820;65.654;21.944;2022-10-31T07:19:45;101046.84;;;-4.47;100.00
12676;BME280;63820;65.654;21.944;2022-10-31T07:22:36;101042.66;;;-4.45;100.00
12676;BME280;63820;65.654;21.944;2022-10-31T07:25:21;101045.16;;;-4.47;100.00
12676;BME280;63820;65.654;21.944;2022-10-31T07:28:06;101039.50;;;-4.37;100.00
12676;BME280;63820;65.654;21.944;2022-10-31T07:30:56;101043.88;;;-4.31;100.00
12676;BME280;63820;65.654;21.944;2022-10-31T07:33:40;101050.22;;;-4.14;100.00
12676;BME280;63820;65.654;21.944;2022-10-31T07:36:24;101043.63;;;-4.07;100.00
12676;BME280;63820;65.654;21.944;2022-10-31T07:39:08;101051.22;;;-4.09;100.00
12676;BME280;63820;65.654;21.944;2022-10-31T07:41:52;101041.88;;;-4.10;100.00
12676;BME280;63820;65.654;21.944;2022-10-31T07:44:36;101038.50;;;-4.09;100.00
12676;BME280;63820;65.654;21.944;2022-10-31T07:47:20;101035.22;;;-4.05;100.00
12676;BME280;63820;65.654;21.944;2022-10-31T07:50:05;101042.03;;;-4.04;100.00
12676;BME280;63820;65.654;21.944;2022-10-31T07:53:00;101043.75;;;-4.03;100.00
12676;BME280;63820;65.654;21.944;2022-10-31T07:55:45;101038.03;;;-3.94;100.00
12676;BME280;63820;65.654;21.944;2022-10-31T07:58:29;101036.56;;;-3.84;100.00
12676;BME280;63820;65.654;21.944;2022-10-31T08:01:13;101036.94;;;-3.69;100.00
12676;BME280;63820;65.654;21.944;2022-10-31T08:03:57;101033.81;;;-3.57;100.00
12676;BME280;63820;65.654;21.944;2022-10-31T08:06:41;101044.03;;;-3.56;100.00
12676;BME280;63820;65.654;21.944;2022-10-31T08:09:25;101035.66;;;-3.11;100.00
12676;BME280;63820;65.654;21.944;2022-10-31T08:12:09;101037.25;;;-1.23;100.00
12676;BME280;63820;65.654;21.944;2022-10-31T08:14:53;101035.06;;;1.18;100.00
12676;BME280;63820;65.654;21.944;2022-10-31T08:17:38;101023.25;;;2.25;100.00
12676;BME280;63820;65.654;21.944;2022-10-31T08:20:22;101019.25;;;4.78;100.00
12676;BME280;63820;65.654;21.944;2022-10-31T08:23:06;101017.66;;;5.98;100.00
12676;BME280;63820;65.654;21.944;2022-10-31T08:25:52;101023.75;;;7.33;84.95
12676;BME280;63820;65.654;21.944;2022-10-31T08:28:36;101012.84;;;6.75;82.80
12676;BME280;63820;65.654;21.944;2022-10-31T08:31:20;101015.03;;;6.01;87.92
12676;BME280;63820;65.654;21.944;2022-10-31T08:34:05;101018.41;;;4.74;100.00
12676;BME280;63820;65.654;21.944;2022-10-31T08:36:49;101012.31;;;5.49;100.00
12676;BME280;63820;65.654;21.944;2022-10-31T08:39:33;101016.00;;;7.31;96.81
12676;BME280;63820;65.654;21.944;2022-10-31T08:42:17;101011.94;;;10.10;67.22
12676;BME280;63820;65.654;21.944;2022-10-31T08:45:01;101010.56;;;12.12;60.37
12676;BME280;63820;65.654;21.944;2022-10-31T08:47:46;101021.81;;;12.14;58.63
12676;BME280;63820;65.654;21.944;2022-10-31T08:50:31;101011.63;;;12.49;53.38
12676;BME280;63820;65.654;21.944;2022-10-31T08:53:18;101016.94;;;13.06;56.86
12676;BME280;63820;65.654;21.944;2022-10-31T08:56:02;101003.28;;;13.00;53.14
12676;BME280;63820;65.654;21.944;2022-10-31T08:58:46;100995.38;;;13.77;51.64
12676;BME280;63820;65.654;21.944;2022-10-31T09:01:30;100986.03;;;16.02;46.77
12676;BME280;63820;65.654;21.944;2022-10-31T09:04:14;100990.66;;;18.36;42.12
12676;BME280;63820;65.654;21.944;2022-10-31T09:06:58;100988.59;;;18.66;40.75
12676;BME280;63820;65.654;21.944;2022-10-31T09:09:42;100979.88;;;19.15;38.45
12676;BME280;63820;65.654;21.944;2022-10-31T09:12:26;100984.78;;;20.28;36.84
12676;BME280;63820;65.654;21.944;2022-10-31T09:15:10;100977.06;;;20.48;34.94
12676;BME280;63820;65.654;21.944;2022-10-31T09:17:54;100984.31;;;20.80;35.17
12676;BME280;63820;65.654;21.944;2022-10-31T09:20:39;100980.34;;;21.94;33.38
12676;BME280;63820;65.654;21.944;2022-10-31T09:23:24;100975.78;;;20.30;33.86
12676;BME280;63820;65.654;21.944;2022-10-31T09:26:08;100979.00;;;21.79;33.23
12676;BME280;63820;65.654;21.944;2022-10-31T09:28:52;100972.09;;;22.71;32.04
12676;BME280;63820;65.654;21.944;2022-10-31T09:31:36;100971.47;;;22.58;31.74
12676;BME280;63820;65.654;21.944;2022-10-31T09:34:20;100977.84;;;23.06;32.26
12676;BME280;63820;65.654;21.944;2022-10-31T09:37:04;100963.22;;;23.91;30.52
12676;BME280;63820;65.654;21.944;2022-10-31T09:39:49;100957.00;;;24.09;29.84
12676;BME280;63820;65.654;21.944;2022-10-31T09:42:51;100957.41;;;22.15;31.09
12676;BME280;63820;65.654;21.944;2022-10-31T09:51:55;100943.06;;;23.59;30.78
12676;BME280;63820;65.654;21.944;2022-10-31T09:57:36;100938.47;;;22.71;31.40
12676;BME280;63820;65.654;21.944;2022-10-31T10:00:22;100947.69;;;23.67;30.42
12676;BME280;63820;65.654;21.944;2022-10-31T10:03:41;100941.06;;;24.09;29.53
12676;BME280;63820;65.654;21.944;2022-10-31T10:06:29;100946.75;;;22.57;30.83
12676;BME280;63820;65.654;21.944;2022-10-31T10:09:18;100949.38;;;22.47;31.63
12676;BME280;63820;65.654;21.944;2022-10-31T10:15:28;100943.25;;;21.41;32.00
12676;BME280;63820;65.654;21.944;2022-10-31T10:21:53;100935.31;;;19.59;34.41
12676;BME280;63820;65.654;21.944;2022-10-31T10:30:50;100924.25;;;16.83;38.98
12676;BME280;63820;65.654;21.944;2022-10-31T10:39:36;100902.13;;;13.03;46.56
12676;BME280;63820;65.654;21.944;2022-10-31T10:42:26;100896.63;;;13.28;47.33
12676;BME280;63820;65.654;21.944;2022-10-31T10:45:29;100895.19;;;14.44;45.13
12676;BME280;63820;65.654;21.944;2022-10-31T10:48:45;100892.66;;;15.68;42.30
12676;BME280;63820;65.654;21.944;2022-10-31T10:54:45;100893.25;;;14.63;44.93
12676;BME280;63820;65.654;21.944;2022-10-31T10:57:52;100900.13;;;13.46;46.65
12676;BME280;63820;65.654;21.944;2022-10-31T11:00:44;100897.47;;;11.51;51.35
12676;BME280;63820;65.654;21.944;2022-10-31T11:03:34;100886.25;;;10.83;54.58
12676;BME280;63820;65.654;21.944;2022-10-31T11:06:23;100889.19;;;10.74;55.89
12676;BME280;63820;65.654;21.944;2022-10-31T11:09:09;100882.16;;;10.76;56.17
12676;BME280;63820;65.654;21.944;2022-10-31T11:11:57;100877.53;;;10.61;57.44
12676;BME280;63820;65.654;21.944;2022-10-31T11:14:50;100883.59;;;11.50;54.74
12676;BME280;63820;65.654;21.944;2022-10-31T11:17:37;100885.44;;;12.50;52.70
12676;BME280;63820;65.654;21.944;2022-10-31T11:20:30;100884.59;;;13.05;51.17
12676;BME280;63820;65.654;21.944;2022-10-31T11:23:18;100886.66;;;12.80;50.96
12676;BME280;63820;65.654;21.944;2022-10-31T11:26:05;100890.78;;;11.65;53.46
12676;BME280;63820;65.654;21.944;2022-10-31T11:28:59;100887.25;;;10.79;56.32
12676;BME280;63820;65.654;21.944;2022-10-31T11:31:45;100891.16;;;9.94;59.72
12676;BME280;63820;65.654;21.944;2022-10-31T11:34:32;100881.06;;;8.76;63.82
12676;BME280;63820;65.654;21.944;2022-10-31T11:37:21;100876.88;;;8.72;67.85
12676;BME280;63820;65.654;21.944;2022-10-31T11:40:16;100868.69;;;7.93;78.33
12676;BME280;63820;65.654;21.944;2022-10-31T11:43:01;100878.03;;;7.99;80.54
12676;BME280;63820;65.654;21.944;2022-10-31T11:45:45;100873.50;;;7.73;83.03
12676;BME280;63820;65.654;21.944;2022-10-31T11:48:29;100862.03;;;7.13;87.31
12676;BME280;63820;65.654;21.944;2022-10-31T11:51:29;100858.00;;;6.62;96.41
12676;BME280;63820;65.654;21.944;2022-10-31T11:54:29;100868.28;;;6.65;100.00
12676;BME280;63820;65.654;21.944;2022-10-31T11:57:27;100860.03;;;6.46;99.55
12676;BME280;63820;65.654;21.944;2022-10-31T12:00:22;100860.91;;;6.02;100.00
12676;BME280;63820;65.654;21.944;2022-10-31T12:08:56;100867.13;;;4.81;100.00
12676;BME280;63820;65.654;21.944;2022-10-31T12:11:51;100873.72;;;4.34;100.00
12676;BME280;63820;65.654;21.944;2022-10-31T12:18:22;100847.06;;;3.57;100.00
12676;BME280;63820;65.654;21.944;2022-10-31T12:24:24;100857.78;;;2.99;100.00
12676;BME280;63820;65.654;21.944;2022-10-31T12:33:29;100845.94;;;2.74;100.00
12676;BME280;63820;65.654;21.944;2022-10-31T12:36:40;100847.75;;;2.53;100.00
12676;BME280;63820;65.654;21.944;2022-10-31T12:45:18;100833.13;;;2.66;100.00
12676;BME280;63820;65.654;21.944;2022-10-31T12:57:39;100827.81;;;2.97;100.00
12676;BME280;63820;65.654;21.944;2022-10-31T13:00:24;100830.47;;;2.84;100.00
12676;BME280;63820;65.654;21.944;2022-10-31T13:03:28;100818.53;;;2.74;100.00
12676;BME280;63820;65.654;21.944;2022-10-31T13:06:19;100811.69;;;2.72;100.00
12676;BME280;63820;65.654;21.944;2022-10-31T13:09:11;100818.50;;;2.82;100.00
12676;BME280;63820;65.654;21.944;2022-10-31T13:12:02;100815.88;;;2.89;100.00
12676;BME280;63820;65.654;21.944;2022-10-31T13:14:54;100809.94;;;2.80;100.00
12676;BME280;63820;65.654;21.944;2022-10-31T13:17:44;100808.19;;;2.85;100.00
12676;BME280;63820;65.654;21.944;2022-10-31T13:20:33;100813.28;;;2.94;100.00
12676;BME280;63820;65.654;21.944;2022-10-31T13:23:27;100808.22;;;2.82;100.00
12676;BME280;63820;65.654;21.944;2022-10-31T13:26:19;100799.72;;;2.74;100.00
12676;BME280;63820;65.654;21.944;2022-10-31T13:29:22;100792.75;;;2.91;100.00
12676;BME280;63820;65.654;21.944;2022-10-31T13:32:10;100788.47;;;2.88;100.00
12676;BME280;63820;65.654;21.944;2022-10-31T13:34:56;100786.81;;;2.83;100.00
12676;BME280;63820;65.654;21.944;2022-10-31T13:37:46;100782.41;;;2.97;100.00
12676;BME280;63820;65.654;21.944;2022-10-31T13:40:45;100774.72;;;2.95;100.00
12676;BME280;63820;65.654;21.944;2022-10-31T13:44:01;100773.09;;;2.85;100.00
12676;BME280;63820;65.654;21.944;2022-10-31T13:46:47;100774.84;;;2.80;100.00
12676;BME280;63820;65.654;21.944;2022-10-31T13:52:22;100772.28;;;2.76;100.00
12676;BME280;63820;65.654;21.944;2022-10-31T13:58:28;100766.31;;;2.71;100.00
12676;BME280;63820;65.654;21.944;2022-10-31T14:01:16;100765.44;;;2.75;100.00
12676;BME280;63820;65.654;21.944;2022-10-31T14:10:04;100757.81;;;2.66;100.00
12676;BME280;63820;65.654;21.944;2022-10-31T14:12:50;100762.91;;;2.69;100.00
12676;BME280;63820;65.654;21.944;2022-10-31T14:15:36;100765.53;;;2.62;100.00
12676;BME280;63820;65.654;21.944;2022-10-31T14:18:24;100759.59;;;2.54;100.00
12676;BME280;63820;65.654;21.944;2022-10-31T14:30:14;100750.22;;;2.47;100.00
12676;BME280;63820;65.654;21.944;2022-10-31T14:33:01;100743.41;;;2.37;100.00
12676;BME280;63820;65.654;21.944;2022-10-31T14:38:50;100746.84;;;2.36;100.00
12676;BME280;63820;65.654;21.944;2022-10-31T14:41:58;100725.44;;;2.39;100.00
12676;BME280;63820;65.654;21.944;2022-10-31T14:50:57;100716.00;;;2.42;100.00
12676;BME280;63820;65.654;21.944;2022-10-31T14:53:49;100708.34;;;2.33;100.00
12676;BME280;63820;65.654;21.944;2022-10-31T14:56:37;100711.00;;;2.21;100.00
12676;BME280;63820;65.654;21.944;2022-10-31T14:59:29;100694.75;;;2.19;100.00
12676;BME280;63820;65.654;21.944;2022-10-31T15:02:16;100701.63;;;2.14;100.00
12676;BME280;63820;65.654;21.944;2022-10-31T15:05:10;100697.34;;;2.13;100.00
12676;BME280;63820;65.654;21.944;2022-10-31T15:07:56;100686.22;;;2.15;100.00
12676;BME280;63820;65.654;21.944;2022-10-31T15:10:45;100685.34;;;2.18;100.00
12676;BME280;63820;65.654;21.944;2022-10-31T15:13:29;100680.22;;;2.18;100.00
12676;BME280;63820;65.654;21.944;2022-10-31T15:16:19;100683.63;;;2.17;100.00
12676;BME280;63820;65.654;21.944;2022-10-31T15:19:06;100679.34;;;2.19;100.00
12676;BME280;63820;65.654;21.944;2022-10-31T15:21:53;100685.34;;;2.19;100.00
12676;BME280;63820;65.654;21.944;2022-10-31T15:24:38;100676.75;;;2.25;100.00
12676;BME280;63820;65.654;21.944;2022-10-31T15:27:23;100673.31;;;2.27;100.00
12676;BME280;63820;65.654;21.944;2022-10-31T15:30:18;100676.72;;;2.28;100.00
12676;BME280;63820;65.654;21.944;2022-10-31T15:33:18;100675.03;;;2.27;100.00
12676;BME280;63820;65.654;21.944;2022-10-31T15:36:03;100666.47;;;2.25;100.00
12676;BME280;63820;65.654;21.944;2022-10-31T15:38:48;100672.44;;;2.28;100.00
12676;BME280;63820;65.654;21.944;2022-10-31T15:41:42;100675.84;;;2.34;100.00
12676;BME280;63820;65.654;21.944;2022-10-31T15:44:33;100673.22;;;2.41;100.00
12676;BME280;63820;65.654;21.944;2022-10-31T15:47:20;100678.34;;;2.41;100.00
12676;BME280;63820;65.654;21.944;2022-10-31T15:50:19;100666.41;;;2.34;100.00
12676;BME280;63820;65.654;21.944;2022-10-31T15:53:06;100669.81;;;2.36;100.00
12676;BME280;63820;65.654;21.944;2022-10-31T15:56:00;100659.53;;;2.39;100.00
12676;BME280;63820;65.654;21.944;2022-10-31T15:58:48;100669.78;;;2.42;100.00
12676;BME280;63820;65.654;21.944;2022-10-31T16:01:33;100671.50;;;2.42;100.00
12676;BME280;63820;65.654;21.944;2022-10-31T16:04:22;100671.50;;;2.43;100.00
12676;BME280;63820;65.654;21.944;2022-10-31T16:07:15;100667.22;;;2.44;100.00
12676;BME280;63820;65.654;21.944;2022-10-31T16:10:02;100671.47;;;2.45;100.00
12676;BME280;63820;65.654;21.944;2022-10-31T16:12:47;100677.47;;;2.45;100.00
12676;BME280;63820;65.654;21.944;2022-10-31T16:15:31;100682.59;;;2.45;100.00